Икса

Карта отелей и гостиниц, располагающихся рядом с аэропортом Икса :

Икса Марий Эл 56° 29' 14.8812" N, 46° 14' 14.2116" E
Икса Марий Эл 56° 29' 14.8812" N, 46° 14' 14.2116" E
Код аэродрома ИКАО
HHM8
Код аэродрома RU
ХХМ8
Координаты
N56.48747° E046.23728°
Превышение над уровнем моря
91
Основная полоса
09/27
Курс магнитный
089,9/269,9
Длина основной ВПП
19
Ширина основной ВПП
18
Покрытие основной ВПП
Твёрдое
Освещение ВПП
Нет
Тип: 
Вертодром
Класс аэродрома: 
Принадлежность: 
ГА
Статус: 
Действующий
Сайт: 
E-mail аэродрома: 
Страна: 
Россия
Регион: 
Марий Эл
Город: 
Дополнительная информация: 
Владелец ПП: нет данных.

Найти трансфер

С помощью этой формы Вы можете найти трансфер из аэропорта Икса в город, аэропорт или вокзал:

Карта места

Javascript is required to view this map.

Погода в аэропортах:

Авиационная погода в Чернобаевке

Регион: 
Погода METAR: 
UKOH 271500Z 32005MPS 300V360 9999 -SHRA BKN021CB 05/03 Q1018 R21/190060 NOSIG
Время наблюдения
2021-02-27T15:00:00Z
Температура C
5.0
Точка росы
3.0
Направление ветра
320
Скорость ветра (узлы)
10
Метео видимость
6.21
Явления погоды
-SHRA
Условия полета
MVFR
Аэропорт подробнее: 

Авиационная погода в Казани

Регион: 
Погода METAR: 
UWKD 271500Z 36007MPS 3500 -SN BLSN OVC030 M13/M16 Q1001 R29/420345 NOSIG RMK QFE740/0987
Время наблюдения
2021-02-27T15:00:00Z
Температура C
-13.0
Точка росы
-16.0
Направление ветра
360
Скорость ветра (узлы)
14
Метео видимость
2.17
Явления погоды
-SN BLSN
Условия полета
IFR
Аэропорт подробнее: 

Авиационная погода в Нижнекамске

Регион: 
Погода METAR: 
UWKE 271500Z 04006MPS 4800 -SN OVC028 M12/M13 Q0998 R03/421040 NOSIG RMK QFE732/0976
Время наблюдения
2021-02-27T15:00:00Z
Температура C
-12.0
Точка росы
-13.0
Направление ветра
40
Скорость ветра (узлы)
12
Метео видимость
2.98
Явления погоды
-SN
Условия полета
IFR
Аэропорт подробнее: 

Авиационная погода в Воронеже

Регион: 
Погода METAR: 
UUOO 271500Z 30006MPS 9999 -SHRA BKN022CB 03/M00 Q1008 R30/190055 NOSIG RMK QFE743
Время наблюдения
2021-02-27T15:00:00Z
Температура C
3.0
Точка росы
0.0
Направление ветра
300
Скорость ветра (узлы)
12
Метео видимость
6.21
Явления погоды
-SHRA
Условия полета
MVFR
Аэропорт подробнее: